createdAt,value
2018-08-17T00:00:41.397Z,15.30
2018-08-17T00:03:10.073Z,15.40
2018-08-17T00:05:38.746Z,15.40
2018-08-17T00:08:07.491Z,15.40
2018-08-17T00:10:36.198Z,15.30
2018-08-17T00:13:04.952Z,15.20
2018-08-17T00:15:33.598Z,15.10
2018-08-17T00:18:02.286Z,15.00
2018-08-17T00:20:30.926Z,14.90
2018-08-17T00:22:59.603Z,14.90
2018-08-17T00:25:28.321Z,14.80
2018-08-17T00:27:57.058Z,14.80
2018-08-17T00:30:25.704Z,14.70
2018-08-17T00:32:54.354Z,14.60
2018-08-17T00:35:23.067Z,14.60
2018-08-17T00:37:52.057Z,14.60
2018-08-17T00:40:20.683Z,14.60
2018-08-17T00:42:49.394Z,14.60
2018-08-17T00:45:18.089Z,14.60
2018-08-17T00:47:46.728Z,14.60
2018-08-17T00:50:15.449Z,14.60
2018-08-17T00:52:44.111Z,14.60
2018-08-17T00:55:13.092Z,14.60
2018-08-17T00:57:41.739Z,14.70
2018-08-17T01:00:10.452Z,14.80
2018-08-17T01:02:39.127Z,14.90
2018-08-17T01:05:07.805Z,14.90
2018-08-17T01:07:36.618Z,14.90
2018-08-17T01:10:05.914Z,14.90
2018-08-17T01:12:34.655Z,14.90
2018-08-17T01:15:03.320Z,14.90
2018-08-17T01:17:31.980Z,15.00
2018-08-17T01:20:00.678Z,15.00
2018-08-17T01:22:29.379Z,15.10
2018-08-17T01:24:58.045Z,15.20
2018-08-17T01:27:26.721Z,15.30
2018-08-17T01:29:55.368Z,15.30
2018-08-17T01:32:23.978Z,15.40
2018-08-17T01:34:59.318Z,15.40
2018-08-17T01:37:27.965Z,15.40
2018-08-17T01:39:56.609Z,15.50
2018-08-17T01:42:25.213Z,15.50
2018-08-17T01:44:53.872Z,15.50
2018-08-17T01:47:22.541Z,15.50
2018-08-17T01:49:51.211Z,15.60
2018-08-17T01:52:19.829Z,15.60
2018-08-17T01:54:48.478Z,15.60
2018-08-17T01:57:17.072Z,15.60
2018-08-17T01:59:45.711Z,15.80
2018-08-17T02:02:14.363Z,15.90
2018-08-17T02:04:43.022Z,16.00
2018-08-17T02:07:11.653Z,16.10
2018-08-17T02:09:40.300Z,16.30
2018-08-17T02:12:09.328Z,16.50
2018-08-17T02:14:37.944Z,16.50
2018-08-17T02:17:06.620Z,16.70
2018-08-17T02:19:35.354Z,16.70
2018-08-17T02:22:04.003Z,16.80
2018-08-17T02:24:32.700Z,16.80
2018-08-17T02:27:01.302Z,16.90
2018-08-17T02:29:29.911Z,16.90
2018-08-17T02:31:58.584Z,16.90
2018-08-17T02:34:27.191Z,16.90
2018-08-17T02:36:55.866Z,16.90
2018-08-17T02:39:24.517Z,16.90
2018-08-17T02:41:53.214Z,16.90
2018-08-17T02:44:21.925Z,16.80
2018-08-17T02:46:50.639Z,16.70
2018-08-17T02:49:19.270Z,16.70
2018-08-17T02:51:48.003Z,16.60
2018-08-17T02:54:16.713Z,16.70
2018-08-17T02:56:45.326Z,16.70
2018-08-17T02:59:13.951Z,16.60
2018-08-17T03:01:42.642Z,16.70
2018-08-17T03:04:11.293Z,16.70
2018-08-17T03:06:39.917Z,16.70
2018-08-17T03:09:10.408Z,16.70
2018-08-17T03:11:39.062Z,16.80
2018-08-17T03:14:08.097Z,16.90
2018-08-17T03:16:36.866Z,16.90
2018-08-17T03:19:05.697Z,17.00
2018-08-17T03:21:34.353Z,17.00
2018-08-17T03:24:03.008Z,17.00
2018-08-17T03:26:31.610Z,17.00
2018-08-17T03:29:00.240Z,17.10
2018-08-17T03:31:28.877Z,17.10
2018-08-17T03:33:57.585Z,17.10
2018-08-17T03:36:26.246Z,17.10
2018-08-17T03:38:54.849Z,17.10
2018-08-17T03:41:23.491Z,17.00
2018-08-17T03:43:52.159Z,17.00
2018-08-17T03:46:20.935Z,17.00
2018-08-17T03:48:49.614Z,17.00
2018-08-17T03:51:18.258Z,17.00
2018-08-17T03:53:46.931Z,17.00
2018-08-17T03:56:15.576Z,16.90
2018-08-17T03:58:44.265Z,16.90
2018-08-17T04:01:12.943Z,16.90
2018-08-17T04:03:41.610Z,16.90
2018-08-17T04:06:10.278Z,16.90
2018-08-17T04:08:38.934Z,16.90
2018-08-17T04:11:07.548Z,17.00
2018-08-17T04:13:36.215Z,17.00
2018-08-17T04:16:04.809Z,17.00
2018-08-17T04:18:33.563Z,17.10
2018-08-17T04:21:02.173Z,17.10
2018-08-17T04:23:30.987Z,17.10
2018-08-17T04:25:59.642Z,17.20
2018-08-17T04:28:28.331Z,17.20
2018-08-17T04:30:56.984Z,17.30
2018-08-17T04:33:25.701Z,17.30
2018-08-17T04:35:54.380Z,17.30
2018-08-17T04:38:23.061Z,17.30
2018-08-17T04:40:51.690Z,17.30
2018-08-17T04:43:20.384Z,17.30
2018-08-17T04:45:49.662Z,17.40
2018-08-17T04:48:18.439Z,17.50
2018-08-17T04:50:47.118Z,17.40
2018-08-17T04:53:15.764Z,17.50
2018-08-17T04:55:44.454Z,17.50
2018-08-17T04:58:13.234Z,17.60
2018-08-17T05:00:41.927Z,17.50
2018-08-17T05:03:10.767Z,17.60
2018-08-17T05:05:39.437Z,17.70
2018-08-17T05:08:08.097Z,17.70
2018-08-17T05:10:36.865Z,17.80
2018-08-17T05:13:05.535Z,17.90
2018-08-17T05:15:34.369Z,17.90
2018-08-17T05:18:03.006Z,18.00
2018-08-17T05:20:31.681Z,18.00
2018-08-17T05:23:00.338Z,18.20
2018-08-17T05:25:29.066Z,18.20
2018-08-17T05:27:57.708Z,18.30
2018-08-17T05:30:26.375Z,18.30
2018-08-17T05:32:55.056Z,18.30
2018-08-17T05:35:23.695Z,18.20
2018-08-17T05:37:52.385Z,18.30
2018-08-17T05:40:27.205Z,18.20
2018-08-17T05:42:56.558Z,18.10
2018-08-17T05:45:25.202Z,18.00
2018-08-17T05:47:54.241Z,18.00
2018-08-17T05:50:22.959Z,18.00
2018-08-17T05:52:51.827Z,17.90
2018-08-17T05:55:20.725Z,17.90
2018-08-17T05:57:49.398Z,17.80
2018-08-17T06:00:18.122Z,17.70
2018-08-17T06:02:46.889Z,17.60
2018-08-17T06:05:15.618Z,17.40
2018-08-17T06:07:44.259Z,17.30
2018-08-17T06:10:12.990Z,17.20
2018-08-17T06:12:41.637Z,17.10
2018-08-17T06:15:10.417Z,17.00
2018-08-17T06:17:39.101Z,16.90
2018-08-17T06:20:08.475Z,16.90
2018-08-17T06:22:37.178Z,16.90
2018-08-17T06:25:10.583Z,16.90
2018-08-17T06:27:39.895Z,16.90
2018-08-17T06:30:11.491Z,16.90
2018-08-17T06:32:40.307Z,16.90
2018-08-17T06:35:10.433Z,16.90
2018-08-17T06:37:57.427Z,16.90
2018-08-17T06:40:26.098Z,16.90
2018-08-17T06:42:54.749Z,16.90
2018-08-17T06:45:23.419Z,16.90
2018-08-17T06:47:52.062Z,16.90
2018-08-17T06:50:20.753Z,16.80
2018-08-17T06:52:49.421Z,16.90
2018-08-17T06:55:18.075Z,16.90
2018-08-17T06:57:46.698Z,16.90
2018-08-17T07:00:16.420Z,16.90
2018-08-17T07:02:46.174Z,16.90
2018-08-17T07:05:14.984Z,16.80
2018-08-17T07:07:43.661Z,16.80
2018-08-17T07:10:13.602Z,16.70
2018-08-17T07:12:42.931Z,16.70
2018-08-17T07:15:11.914Z,16.60
2018-08-17T07:17:41.003Z,16.60
2018-08-17T07:20:11.510Z,16.60
2018-08-17T07:22:40.377Z,16.50
2018-08-17T07:25:09.458Z,16.50
2018-08-17T07:27:38.388Z,16.40
2018-08-17T07:30:08.288Z,16.40
2018-08-17T07:32:36.989Z,16.30
2018-08-17T07:35:07.233Z,16.40
2018-08-17T07:37:35.951Z,16.40
2018-08-17T07:40:04.869Z,16.30
2018-08-17T07:42:33.526Z,16.30
2018-08-17T07:45:02.168Z,16.30
2018-08-17T07:47:30.892Z,16.30
2018-08-17T07:49:59.522Z,16.30
2018-08-17T07:52:28.227Z,16.30
2018-08-17T07:54:56.887Z,16.40
2018-08-17T07:57:25.601Z,16.40
2018-08-17T07:59:54.252Z,16.40
2018-08-17T08:02:22.895Z,16.40
2018-08-17T08:04:51.509Z,16.50
2018-08-17T08:07:20.111Z,16.50
2018-08-17T08:09:48.741Z,16.50
2018-08-17T08:12:17.325Z,16.70
2018-08-17T08:14:45.985Z,16.80
2018-08-17T08:17:14.591Z,16.90
2018-08-17T08:19:43.186Z,17.10
2018-08-17T08:22:11.861Z,17.20
2018-08-17T08:24:40.524Z,17.50
2018-08-17T08:27:09.242Z,17.70
2018-08-17T08:29:44.745Z,18.00
2018-08-17T08:32:13.356Z,18.30
2018-08-17T08:34:42.014Z,18.30
2018-08-17T08:37:10.651Z,18.60
2018-08-17T08:39:39.281Z,18.90
2018-08-17T08:42:07.941Z,18.80
2018-08-17T08:44:36.630Z,19.20
2018-08-17T08:47:05.389Z,19.60
2018-08-17T08:49:34.147Z,20.00
2018-08-17T08:52:02.894Z,20.50
2018-08-17T08:54:31.597Z,21.20
2018-08-17T08:57:00.322Z,21.90
2018-08-17T08:59:29.035Z,21.70
2018-08-17T09:01:57.646Z,21.60
2018-08-17T09:04:26.426Z,21.10
2018-08-17T09:06:55.521Z,20.80
2018-08-17T09:09:25.389Z,20.30
2018-08-17T09:11:55.717Z,20.20
2018-08-17T09:14:24.452Z,20.00
2018-08-17T09:16:53.052Z,19.90
2018-08-17T09:19:21.770Z,19.70
2018-08-17T09:21:51.039Z,19.40
2018-08-17T09:24:20.194Z,19.60
2018-08-17T09:26:49.561Z,19.90
2018-08-17T09:29:18.685Z,20.00
2018-08-17T09:31:47.635Z,20.40
2018-08-17T09:34:16.683Z,20.40
2018-08-17T09:36:45.702Z,20.50
2018-08-17T09:39:15.497Z,20.30
2018-08-17T09:41:44.354Z,20.20
2018-08-17T09:44:13.698Z,20.20
2018-08-17T09:46:42.493Z,20.20
2018-08-17T09:49:11.357Z,20.20
2018-08-17T09:51:40.533Z,20.30
2018-08-17T10:08:29.371Z,20.50
2018-08-17T10:10:58.007Z,20.50
2018-08-17T10:13:26.653Z,20.30
2018-08-17T10:15:55.398Z,20.40
2018-08-17T10:18:29.709Z,20.30
2018-08-17T10:20:58.498Z,20.00
2018-08-17T10:23:27.010Z,19.80
2018-08-17T10:25:55.670Z,19.50
2018-08-17T10:28:24.306Z,19.60
2018-08-17T10:30:52.991Z,19.60
2018-08-17T10:33:21.668Z,19.40
2018-08-17T10:35:50.641Z,19.60
2018-08-17T10:38:19.345Z,20.30
2018-08-17T10:40:48.003Z,20.50
2018-08-17T10:43:16.730Z,20.80
2018-08-17T10:45:45.516Z,21.10
2018-08-17T10:48:14.189Z,21.40
2018-08-17T10:50:42.871Z,21.40
2018-08-17T10:53:11.594Z,21.10
2018-08-17T10:55:45.505Z,21.40
2018-08-17T10:58:17.145Z,21.70
2018-08-17T11:00:46.774Z,22.20
2018-08-17T11:03:15.774Z,21.90
2018-08-17T11:05:44.455Z,22.20
2018-08-17T11:08:13.170Z,22.30
2018-08-17T11:10:41.896Z,22.20
2018-08-17T11:13:10.680Z,22.00
2018-08-17T11:15:40.078Z,21.70
2018-08-17T11:18:08.774Z,21.20
2018-08-17T11:20:37.490Z,21.20
2018-08-17T11:23:06.128Z,21.30
2018-08-17T11:25:34.802Z,21.20
2018-08-17T11:28:03.497Z,20.80
2018-08-17T11:30:32.161Z,20.80
2018-08-17T11:33:00.802Z,20.90
2018-08-17T11:35:29.465Z,20.70
2018-08-17T11:37:58.141Z,20.70
2018-08-17T11:40:26.771Z,20.80
2018-08-17T11:42:55.413Z,20.60
2018-08-17T11:45:27.103Z,20.30
2018-08-17T11:47:56.726Z,20.10
2018-08-17T11:50:26.401Z,20.00
2018-08-17T11:52:59.027Z,19.80
2018-08-17T11:55:31.856Z,19.80
2018-08-17T11:58:00.583Z,19.80
2018-08-17T12:00:36.506Z,19.90
2018-08-17T12:03:06.738Z,20.10
2018-08-17T12:05:35.616Z,20.50
2018-08-17T12:08:04.475Z,20.50
2018-08-17T12:10:33.105Z,20.40
2018-08-17T12:13:07.212Z,20.10
2018-08-17T12:15:44.751Z,19.80
2018-08-17T12:18:14.613Z,19.60
2018-08-17T12:20:43.334Z,19.40
2018-08-17T12:23:12.221Z,19.30
2018-08-17T12:25:48.788Z,19.40
2018-08-17T12:28:17.925Z,19.50
2018-08-17T12:30:46.665Z,19.60
2018-08-17T12:33:15.407Z,19.60
2018-08-17T12:35:44.034Z,19.90
2018-08-17T12:38:13.268Z,20.10
2018-08-17T12:40:45.103Z,20.30
2018-08-17T12:43:15.010Z,20.50
2018-08-17T12:45:43.668Z,20.40
2018-08-17T12:48:13.136Z,20.50
2018-08-17T12:50:42.137Z,20.50
2018-08-17T12:53:10.805Z,20.40
2018-08-17T12:55:39.514Z,20.30
2018-08-17T12:58:08.301Z,20.30
2018-08-17T13:00:37.212Z,20.20
2018-08-17T13:03:06.009Z,20.30
2018-08-17T13:05:34.815Z,20.40
2018-08-17T13:08:03.520Z,20.60
2018-08-17T13:10:32.164Z,20.80
2018-08-17T13:13:05.935Z,21.20
2018-08-17T13:15:35.264Z,21.40
2018-08-17T13:18:14.586Z,21.70
2018-08-17T13:20:43.441Z,21.90
2018-08-17T13:23:12.363Z,21.80
2018-08-17T13:25:41.569Z,21.80
2018-08-17T13:28:10.326Z,21.90
2018-08-17T13:30:39.004Z,22.20
2018-08-17T13:33:07.734Z,22.10
2018-08-17T13:35:36.660Z,22.00
2018-08-17T13:38:05.537Z,22.00
2018-08-17T13:40:34.209Z,22.20
2018-08-17T13:43:02.884Z,22.00
2018-08-17T13:45:31.557Z,21.90
2018-08-17T13:48:00.335Z,21.90
2018-08-17T13:50:28.958Z,21.90
2018-08-17T13:52:57.707Z,21.80
2018-08-17T13:55:26.522Z,21.80
2018-08-17T13:57:55.108Z,21.60
2018-08-17T14:00:23.797Z,21.80
2018-08-17T14:02:52.412Z,21.80
2018-08-17T14:05:21.090Z,21.70
2018-08-17T14:07:49.755Z,21.70
2018-08-17T14:10:18.430Z,21.70
2018-08-17T14:12:47.103Z,21.70
2018-08-17T14:15:15.814Z,21.70
2018-08-17T14:17:44.621Z,21.80
2018-08-17T14:20:14.993Z,21.70
2018-08-17T14:22:43.899Z,21.80
2018-08-17T14:25:12.820Z,22.00
2018-08-17T14:27:41.777Z,22.10
2018-08-17T14:30:16.370Z,21.90
2018-08-17T14:32:45.389Z,21.90
2018-08-17T14:35:14.756Z,21.70
2018-08-17T14:37:43.427Z,21.50
2018-08-17T14:40:12.150Z,21.40
2018-08-17T14:42:41.413Z,21.40
2018-08-17T14:45:11.282Z,21.40
2018-08-17T14:47:40.052Z,21.50
2018-08-17T14:50:11.751Z,21.60
2018-08-17T14:52:40.531Z,21.90
2018-08-17T14:55:09.661Z,22.00
2018-08-17T14:57:38.393Z,22.30
2018-08-17T15:00:14.221Z,22.40
2018-08-17T15:02:43.003Z,22.50
2018-08-17T15:05:13.949Z,22.60
2018-08-17T15:07:42.687Z,22.60
2018-08-17T15:10:13.234Z,22.80
2018-08-17T15:12:42.908Z,23.10
2018-08-17T15:15:12.339Z,23.40
2018-08-17T15:17:40.997Z,23.50
2018-08-17T15:20:10.981Z,23.70
2018-08-17T15:22:39.699Z,24.20
2018-08-17T15:25:08.397Z,24.40
2018-08-17T15:27:37.120Z,24.50
2018-08-17T15:30:08.009Z,24.70
2018-08-17T15:32:36.783Z,24.70
2018-08-17T15:35:05.666Z,24.70
2018-08-17T15:37:34.487Z,24.70
2018-08-17T15:40:03.243Z,24.60
2018-08-17T15:42:32.030Z,24.90
2018-08-17T15:45:00.725Z,24.80
2018-08-17T15:47:32.630Z,24.80
2018-08-17T15:50:16.764Z,24.80
2018-08-17T15:52:45.637Z,24.70
2018-08-17T15:55:14.820Z,24.70
2018-08-17T15:57:43.796Z,24.80
2018-08-17T16:00:14.558Z,25.10
2018-08-17T16:02:43.248Z,25.20
2018-08-17T16:05:11.963Z,25.00
2018-08-17T16:07:40.663Z,24.80
2018-08-17T16:10:11.300Z,24.80
2018-08-17T16:12:40.065Z,24.90
2018-08-17T16:15:09.608Z,24.80
2018-08-17T16:17:39.147Z,24.90
2018-08-17T16:20:09.342Z,24.80
2018-08-17T16:22:38.157Z,24.40
2018-08-17T16:25:07.866Z,24.50
2018-08-17T16:27:36.627Z,24.40
2018-08-17T16:30:07.186Z,24.30
2018-08-17T16:32:35.912Z,24.20
2018-08-17T16:35:04.658Z,24.20
2018-08-17T16:37:33.382Z,23.90
2018-08-17T16:40:02.113Z,23.90
2018-08-17T16:42:35.292Z,23.90
2018-08-17T16:45:05.400Z,24.00
2018-08-17T16:47:34.028Z,23.80
2018-08-17T16:50:02.727Z,23.90
2018-08-17T16:52:31.413Z,23.90
2018-08-17T16:55:00.097Z,23.90
2018-08-17T16:57:28.782Z,23.60
2018-08-17T16:59:57.449Z,23.40
2018-08-17T17:02:26.073Z,23.20
2018-08-17T17:04:55.657Z,22.90
2018-08-17T17:07:30.061Z,22.80
2018-08-17T17:09:59.154Z,22.60
2018-08-17T17:12:27.893Z,22.50
2018-08-17T17:15:01.472Z,22.40
2018-08-17T17:17:30.234Z,22.30
2018-08-17T17:19:58.905Z,22.30
2018-08-17T17:22:27.631Z,22.20
2018-08-17T17:25:04.164Z,22.20
2018-08-17T17:27:32.800Z,22.00
2018-08-17T17:30:01.470Z,22.00
2018-08-17T17:32:30.150Z,21.90
2018-08-17T17:34:58.779Z,21.90
2018-08-17T17:37:27.463Z,21.70
2018-08-17T17:39:56.115Z,21.70
2018-08-17T17:42:24.822Z,21.60
2018-08-17T17:44:53.471Z,21.50
2018-08-17T17:47:22.180Z,21.30
2018-08-17T17:49:50.819Z,21.10
2018-08-17T17:52:19.472Z,21.00
2018-08-17T17:54:48.134Z,20.90
2018-08-17T17:57:16.853Z,20.80
2018-08-17T17:59:50.714Z,20.70
2018-08-17T18:02:19.391Z,20.60
2018-08-17T18:04:48.204Z,20.50
2018-08-17T18:07:16.877Z,20.40
2018-08-17T18:09:45.503Z,20.20
2018-08-17T18:12:14.173Z,20.10
2018-08-17T18:14:42.798Z,20.00
2018-08-17T18:17:11.697Z,19.80
2018-08-17T18:19:40.329Z,19.70
2018-08-17T18:22:14.453Z,19.60
2018-08-17T18:24:43.162Z,19.40
2018-08-17T18:27:12.847Z,19.20
2018-08-17T18:29:41.505Z,19.10
2018-08-17T18:32:10.245Z,18.90
2018-08-17T18:34:38.899Z,18.80
2018-08-17T18:37:07.615Z,18.60
2018-08-17T18:39:36.322Z,18.40
2018-08-17T18:42:05.084Z,18.30
2018-08-17T18:44:33.702Z,18.10
2018-08-17T18:47:02.356Z,17.90
2018-08-17T18:49:30.967Z,17.80
2018-08-17T18:51:59.622Z,17.70
2018-08-17T18:54:28.246Z,17.50
2018-08-17T18:56:56.905Z,17.40
2018-08-17T18:59:25.529Z,17.20
2018-08-17T19:01:54.200Z,17.20
2018-08-17T19:04:22.810Z,17.10
2018-08-17T19:06:51.500Z,17.00
2018-08-17T19:09:20.108Z,16.90
2018-08-17T19:11:48.764Z,16.80
2018-08-17T19:14:17.395Z,16.70
2018-08-17T19:16:46.192Z,16.60
2018-08-17T19:19:14.888Z,16.50
2018-08-17T19:21:43.561Z,16.40
2018-08-17T19:24:13.016Z,16.40
2018-08-17T19:26:42.165Z,16.20
2018-08-17T19:29:11.339Z,16.10
2018-08-17T19:31:47.444Z,16.00
2018-08-17T19:34:16.138Z,16.00
2018-08-17T19:36:44.871Z,15.80
2018-08-17T19:39:20.656Z,15.80
2018-08-17T19:41:49.826Z,15.70
2018-08-17T19:44:18.437Z,15.70
2018-08-17T19:46:47.155Z,15.70
2018-08-17T19:49:15.832Z,15.70
2018-08-17T19:51:44.505Z,15.60
2018-08-17T19:54:13.126Z,15.50
2018-08-17T19:56:41.845Z,15.50
2018-08-17T19:59:10.624Z,15.40
2018-08-17T20:01:39.348Z,15.30
